sensor_id;sensor_type;location;lat;lon;timestamp;P1;durP1;ratioP1;P2;durP2;ratioP2
65377;SDS011;51982;51.042;13.806;2022-10-13T00:01:18;14.77;;;6.40;;
65377;SDS011;51982;51.042;13.806;2022-10-13T00:03:45;13.93;;;6.78;;
65377;SDS011;51982;51.042;13.806;2022-10-13T00:06:11;14.77;;;6.60;;
65377;SDS011;51982;51.042;13.806;2022-10-13T00:08:38;12.05;;;6.65;;
65377;SDS011;51982;51.042;13.806;2022-10-13T00:11:18;13.43;;;6.68;;
65377;SDS011;51982;51.042;13.806;2022-10-13T00:13:45;12.85;;;6.80;;
65377;SDS011;51982;51.042;13.806;2022-10-13T00:16:12;10.32;;;5.88;;
65377;SDS011;51982;51.042;13.806;2022-10-13T00:18:39;15.77;;;6.68;;
65377;SDS011;51982;51.042;13.806;2022-10-13T00:21:06;13.32;;;6.22;;
65377;SDS011;51982;51.042;13.806;2022-10-13T00:23:33;13.30;;;6.35;;
65377;SDS011;51982;51.042;13.806;2022-10-13T00:26:00;13.15;;;6.63;;
65377;SDS011;51982;51.042;13.806;2022-10-13T00:28:30;15.77;;;6.60;;
65377;SDS011;51982;51.042;13.806;2022-10-13T00:30:55;17.05;;;6.60;;
65377;SDS011;51982;51.042;13.806;2022-10-13T00:33:21;10.68;;;6.40;;
65377;SDS011;51982;51.042;13.806;2022-10-13T00:35:47;9.02;;;5.65;;
65377;SDS011;51982;51.042;13.806;2022-10-13T00:38:14;13.80;;;5.60;;
65377;SDS011;51982;51.042;13.806;2022-10-13T00:40:54;10.52;;;5.75;;
65377;SDS011;51982;51.042;13.806;2022-10-13T00:43:21;13.57;;;6.13;;
65377;SDS011;51982;51.042;13.806;2022-10-13T00:45:49;12.48;;;6.45;;
65377;SDS011;51982;51.042;13.806;2022-10-13T00:48:26;14.20;;;6.45;;
65377;SDS011;51982;51.042;13.806;2022-10-13T00:50:54;11.65;;;6.07;;
65377;SDS011;51982;51.042;13.806;2022-10-13T00:53:22;11.52;;;6.22;;
65377;SDS011;51982;51.042;13.806;2022-10-13T00:55:53;16.08;;;6.25;;
65377;SDS011;51982;51.042;13.806;2022-10-13T00:58:19;10.95;;;6.43;;
65377;SDS011;51982;51.042;13.806;2022-10-13T01:00:48;12.13;;;6.32;;
65377;SDS011;51982;51.042;13.806;2022-10-13T01:03:15;11.57;;;6.45;;
65377;SDS011;51982;51.042;13.806;2022-10-13T01:05:41;10.48;;;6.43;;
65377;SDS011;51982;51.042;13.806;2022-10-13T01:08:08;16.25;;;6.35;;
65377;SDS011;51982;51.042;13.806;2022-10-13T01:13:30;13.38;;;6.47;;
65377;SDS011;51982;51.042;13.806;2022-10-13T01:16:12;10.93;;;5.93;;
65377;SDS011;51982;51.042;13.806;2022-10-13T01:18:55;13.30;;;6.00;;
65377;SDS011;51982;51.042;13.806;2022-10-13T01:21:46;11.27;;;5.97;;
65377;SDS011;51982;51.042;13.806;2022-10-13T01:29:31;9.70;;;5.82;;
65377;SDS011;51982;51.042;13.806;2022-10-13T01:34:54;11.32;;;5.80;;
65377;SDS011;51982;51.042;13.806;2022-10-13T01:37:33;11.75;;;5.63;;
65377;SDS011;51982;51.042;13.806;2022-10-13T01:45:47;11.45;;;5.90;;
65377;SDS011;51982;51.042;13.806;2022-10-13T01:48:18;13.10;;;6.22;;
65377;SDS011;51982;51.042;13.806;2022-10-13T01:50:44;12.27;;;5.75;;
65377;SDS011;51982;51.042;13.806;2022-10-13T01:53:10;12.32;;;5.30;;
65377;SDS011;51982;51.042;13.806;2022-10-13T01:55:47;13.27;;;5.78;;
65377;SDS011;51982;51.042;13.806;2022-10-13T01:58:24;10.30;;;5.85;;
65377;SDS011;51982;51.042;13.806;2022-10-13T02:00:56;13.95;;;5.82;;
65377;SDS011;51982;51.042;13.806;2022-10-13T02:03:51;11.48;;;4.63;;
65377;SDS011;51982;51.042;13.806;2022-10-13T02:06:24;11.32;;;5.63;;
65377;SDS011;51982;51.042;13.806;2022-10-13T02:09:02;9.13;;;5.32;;
65377;SDS011;51982;51.042;13.806;2022-10-13T02:11:32;14.10;;;5.22;;
65377;SDS011;51982;51.042;13.806;2022-10-13T02:16:23;11.30;;;6.07;;
65377;SDS011;51982;51.042;13.806;2022-10-13T02:18:49;10.05;;;5.38;;
65377;SDS011;51982;51.042;13.806;2022-10-13T02:21:15;13.88;;;5.63;;
65377;SDS011;51982;51.042;13.806;2022-10-13T02:23:41;16.67;;;8.00;;
65377;SDS011;51982;51.042;13.806;2022-10-13T02:26:07;9.52;;;5.88;;
65377;SDS011;51982;51.042;13.806;2022-10-13T02:28:33;10.02;;;5.75;;
65377;SDS011;51982;51.042;13.806;2022-10-13T02:31:01;12.93;;;5.35;;
65377;SDS011;51982;51.042;13.806;2022-10-13T02:33:26;10.35;;;5.88;;
65377;SDS011;51982;51.042;13.806;2022-10-13T02:35:52;11.20;;;5.82;;
65377;SDS011;51982;51.042;13.806;2022-10-13T02:38:17;8.85;;;5.47;;
65377;SDS011;51982;51.042;13.806;2022-10-13T02:40:42;12.57;;;5.95;;
65377;SDS011;51982;51.042;13.806;2022-10-13T02:43:08;12.15;;;6.30;;
65377;SDS011;51982;51.042;13.806;2022-10-13T02:45:33;12.52;;;6.00;;
65377;SDS011;51982;51.042;13.806;2022-10-13T02:47:58;16.23;;;6.85;;
65377;SDS011;51982;51.042;13.806;2022-10-13T02:50:23;11.30;;;6.05;;
65377;SDS011;51982;51.042;13.806;2022-10-13T02:52:49;10.18;;;5.70;;
65377;SDS011;51982;51.042;13.806;2022-10-13T02:55:14;11.18;;;6.10;;
65377;SDS011;51982;51.042;13.806;2022-10-13T02:57:40;10.00;;;5.88;;
65377;SDS011;51982;51.042;13.806;2022-10-13T03:00:05;9.98;;;5.63;;
65377;SDS011;51982;51.042;13.806;2022-10-13T03:02:31;12.13;;;6.18;;
65377;SDS011;51982;51.042;13.806;2022-10-13T03:04:56;16.65;;;7.35;;
65377;SDS011;51982;51.042;13.806;2022-10-13T03:07:22;15.95;;;7.07;;
65377;SDS011;51982;51.042;13.806;2022-10-13T03:09:47;13.25;;;5.82;;
65377;SDS011;51982;51.042;13.806;2022-10-13T03:12:12;14.68;;;5.78;;
65377;SDS011;51982;51.042;13.806;2022-10-13T03:14:37;12.50;;;5.47;;
65377;SDS011;51982;51.042;13.806;2022-10-13T03:17:03;10.13;;;5.55;;
65377;SDS011;51982;51.042;13.806;2022-10-13T03:19:29;10.30;;;5.85;;
65377;SDS011;51982;51.042;13.806;2022-10-13T03:21:54;11.73;;;5.80;;
65377;SDS011;51982;51.042;13.806;2022-10-13T03:24:19;15.10;;;7.20;;
65377;SDS011;51982;51.042;13.806;2022-10-13T03:26:45;18.88;;;7.03;;
65377;SDS011;51982;51.042;13.806;2022-10-13T03:29:12;10.70;;;6.25;;
65377;SDS011;51982;51.042;13.806;2022-10-13T03:31:38;13.75;;;6.53;;
65377;SDS011;51982;51.042;13.806;2022-10-13T03:34:04;12.77;;;6.20;;
65377;SDS011;51982;51.042;13.806;2022-10-13T03:36:29;10.82;;;5.70;;
65377;SDS011;51982;51.042;13.806;2022-10-13T03:38:54;11.73;;;5.53;;
65377;SDS011;51982;51.042;13.806;2022-10-13T03:41:20;9.02;;;5.53;;
65377;SDS011;51982;51.042;13.806;2022-10-13T03:43:46;13.45;;;5.72;;
65377;SDS011;51982;51.042;13.806;2022-10-13T03:46:12;13.10;;;6.40;;
65377;SDS011;51982;51.042;13.806;2022-10-13T03:48:39;12.20;;;6.18;;
65377;SDS011;51982;51.042;13.806;2022-10-13T03:51:09;10.52;;;5.63;;
65377;SDS011;51982;51.042;13.806;2022-10-13T03:53:43;11.02;;;6.00;;
65377;SDS011;51982;51.042;13.806;2022-10-13T03:56:09;13.05;;;6.38;;
65377;SDS011;51982;51.042;13.806;2022-10-13T03:58:38;14.93;;;6.75;;
65377;SDS011;51982;51.042;13.806;2022-10-13T04:01:04;15.38;;;6.35;;
65377;SDS011;51982;51.042;13.806;2022-10-13T04:03:30;14.90;;;6.30;;
65377;SDS011;51982;51.042;13.806;2022-10-13T04:05:59;14.57;;;5.97;;
65377;SDS011;51982;51.042;13.806;2022-10-13T04:08:25;14.60;;;5.93;;
65377;SDS011;51982;51.042;13.806;2022-10-13T04:10:57;11.75;;;5.78;;
65377;SDS011;51982;51.042;13.806;2022-10-13T04:13:23;16.30;;;6.82;;
65377;SDS011;51982;51.042;13.806;2022-10-13T04:15:48;12.40;;;5.70;;
65377;SDS011;51982;51.042;13.806;2022-10-13T04:18:13;13.10;;;6.32;;
65377;SDS011;51982;51.042;13.806;2022-10-13T04:20:39;14.43;;;6.47;;
65377;SDS011;51982;51.042;13.806;2022-10-13T04:23:04;17.45;;;6.70;;
65377;SDS011;51982;51.042;13.806;2022-10-13T04:25:33;16.25;;;6.60;;
65377;SDS011;51982;51.042;13.806;2022-10-13T04:27:59;20.13;;;6.57;;
65377;SDS011;51982;51.042;13.806;2022-10-13T04:30:24;15.93;;;6.45;;
65377;SDS011;51982;51.042;13.806;2022-10-13T04:32:50;11.75;;;5.82;;
65377;SDS011;51982;51.042;13.806;2022-10-13T04:35:15;11.55;;;6.50;;
65377;SDS011;51982;51.042;13.806;2022-10-13T04:37:40;20.83;;;6.90;;
65377;SDS011;51982;51.042;13.806;2022-10-13T04:40:06;14.05;;;7.05;;
65377;SDS011;51982;51.042;13.806;2022-10-13T04:42:31;12.98;;;6.28;;
65377;SDS011;51982;51.042;13.806;2022-10-13T04:44:57;14.02;;;7.10;;
65377;SDS011;51982;51.042;13.806;2022-10-13T04:47:23;15.07;;;6.50;;
65377;SDS011;51982;51.042;13.806;2022-10-13T04:49:48;13.15;;;6.30;;
65377;SDS011;51982;51.042;13.806;2022-10-13T04:52:13;12.93;;;6.45;;
65377;SDS011;51982;51.042;13.806;2022-10-13T04:54:38;16.23;;;6.97;;
65377;SDS011;51982;51.042;13.806;2022-10-13T04:57:04;16.75;;;6.38;;
65377;SDS011;51982;51.042;13.806;2022-10-13T04:59:29;16.30;;;6.18;;
65377;SDS011;51982;51.042;13.806;2022-10-13T05:01:54;15.07;;;6.57;;
65377;SDS011;51982;51.042;13.806;2022-10-13T05:04:19;14.75;;;5.88;;
65377;SDS011;51982;51.042;13.806;2022-10-13T05:06:45;13.18;;;6.45;;
65377;SDS011;51982;51.042;13.806;2022-10-13T05:09:13;14.63;;;6.63;;
65377;SDS011;51982;51.042;13.806;2022-10-13T05:11:42;18.25;;;6.75;;
65377;SDS011;51982;51.042;13.806;2022-10-13T05:14:07;14.52;;;6.95;;
65377;SDS011;51982;51.042;13.806;2022-10-13T05:16:32;17.13;;;6.68;;
65377;SDS011;51982;51.042;13.806;2022-10-13T05:18:58;20.70;;;6.80;;
65377;SDS011;51982;51.042;13.806;2022-10-13T05:21:27;18.30;;;6.72;;
65377;SDS011;51982;51.042;13.806;2022-10-13T05:23:53;13.13;;;6.90;;
65377;SDS011;51982;51.042;13.806;2022-10-13T05:26:20;17.25;;;7.00;;
65377;SDS011;51982;51.042;13.806;2022-10-13T05:28:47;20.13;;;7.47;;
65377;SDS011;51982;51.042;13.806;2022-10-13T05:31:17;19.42;;;7.93;;
65377;SDS011;51982;51.042;13.806;2022-10-13T05:33:44;19.80;;;7.32;;
65377;SDS011;51982;51.042;13.806;2022-10-13T05:36:21;14.15;;;7.13;;
65377;SDS011;51982;51.042;13.806;2022-10-13T05:38:51;10.90;;;6.18;;
65377;SDS011;51982;51.042;13.806;2022-10-13T05:41:19;17.23;;;6.95;;
65377;SDS011;51982;51.042;13.806;2022-10-13T05:43:45;15.02;;;6.55;;
65377;SDS011;51982;51.042;13.806;2022-10-13T05:46:10;14.02;;;7.07;;
65377;SDS011;51982;51.042;13.806;2022-10-13T05:48:35;15.25;;;6.47;;
65377;SDS011;51982;51.042;13.806;2022-10-13T05:51:03;13.35;;;7.05;;
65377;SDS011;51982;51.042;13.806;2022-10-13T05:53:51;14.75;;;6.65;;
65377;SDS011;51982;51.042;13.806;2022-10-13T05:56:31;13.95;;;6.70;;
65377;SDS011;51982;51.042;13.806;2022-10-13T05:59:05;15.70;;;6.57;;
65377;SDS011;51982;51.042;13.806;2022-10-13T06:01:34;14.95;;;6.68;;
65377;SDS011;51982;51.042;13.806;2022-10-13T06:04:04;13.68;;;7.00;;
65377;SDS011;51982;51.042;13.806;2022-10-13T06:06:38;19.70;;;6.63;;
65377;SDS011;51982;51.042;13.806;2022-10-13T06:09:04;14.40;;;7.00;;
65377;SDS011;51982;51.042;13.806;2022-10-13T06:11:29;15.85;;;7.10;;
65377;SDS011;51982;51.042;13.806;2022-10-13T06:13:55;16.45;;;6.47;;
65377;SDS011;51982;51.042;13.806;2022-10-13T06:16:20;15.02;;;6.80;;
65377;SDS011;51982;51.042;13.806;2022-10-13T06:18:45;11.88;;;6.50;;
65377;SDS011;51982;51.042;13.806;2022-10-13T06:21:11;15.40;;;6.90;;
65377;SDS011;51982;51.042;13.806;2022-10-13T06:23:37;12.90;;;6.95;;
65377;SDS011;51982;51.042;13.806;2022-10-13T06:26:02;17.20;;;6.93;;
65377;SDS011;51982;51.042;13.806;2022-10-13T06:28:28;17.60;;;6.72;;
65377;SDS011;51982;51.042;13.806;2022-10-13T06:30:53;13.80;;;7.03;;
65377;SDS011;51982;51.042;13.806;2022-10-13T06:33:20;11.88;;;6.78;;
65377;SDS011;51982;51.042;13.806;2022-10-13T06:35:46;13.93;;;6.95;;
65377;SDS011;51982;51.042;13.806;2022-10-13T06:38:12;16.10;;;6.97;;
65377;SDS011;51982;51.042;13.806;2022-10-13T06:40:37;14.75;;;7.43;;
65377;SDS011;51982;51.042;13.806;2022-10-13T06:43:02;14.57;;;7.50;;
65377;SDS011;51982;51.042;13.806;2022-10-13T06:45:28;18.10;;;7.47;;
65377;SDS011;51982;51.042;13.806;2022-10-13T06:47:53;15.68;;;7.15;;
65377;SDS011;51982;51.042;13.806;2022-10-13T06:50:19;14.30;;;7.47;;
65377;SDS011;51982;51.042;13.806;2022-10-13T06:52:48;14.07;;;6.45;;
65377;SDS011;51982;51.042;13.806;2022-10-13T06:55:13;15.65;;;7.68;;
65377;SDS011;51982;51.042;13.806;2022-10-13T06:57:38;14.02;;;6.93;;
65377;SDS011;51982;51.042;13.806;2022-10-13T07:00:04;15.15;;;7.10;;
65377;SDS011;51982;51.042;13.806;2022-10-13T07:02:31;15.52;;;7.38;;
65377;SDS011;51982;51.042;13.806;2022-10-13T07:04:56;12.18;;;7.35;;
65377;SDS011;51982;51.042;13.806;2022-10-13T07:07:21;18.25;;;7.25;;
65377;SDS011;51982;51.042;13.806;2022-10-13T07:09:47;15.57;;;7.22;;
65377;SDS011;51982;51.042;13.806;2022-10-13T07:12:13;17.52;;;7.75;;
65377;SDS011;51982;51.042;13.806;2022-10-13T07:14:38;17.15;;;6.82;;
65377;SDS011;51982;51.042;13.806;2022-10-13T07:17:03;15.45;;;7.28;;
65377;SDS011;51982;51.042;13.806;2022-10-13T07:19:29;17.65;;;7.97;;
65377;SDS011;51982;51.042;13.806;2022-10-13T07:21:55;20.95;;;7.35;;
65377;SDS011;51982;51.042;13.806;2022-10-13T07:24:20;13.27;;;7.07;;
65377;SDS011;51982;51.042;13.806;2022-10-13T07:26:45;16.13;;;7.03;;
65377;SDS011;51982;51.042;13.806;2022-10-13T07:29:11;19.98;;;7.13;;
65377;SDS011;51982;51.042;13.806;2022-10-13T07:31:36;18.58;;;6.95;;
65377;SDS011;51982;51.042;13.806;2022-10-13T07:34:01;11.75;;;6.70;;
65377;SDS011;51982;51.042;13.806;2022-10-13T07:36:29;14.60;;;7.78;;
65377;SDS011;51982;51.042;13.806;2022-10-13T07:38:55;34.38;;;7.93;;
65377;SDS011;51982;51.042;13.806;2022-10-13T07:41:20;16.35;;;6.60;;
65377;SDS011;51982;51.042;13.806;2022-10-13T07:43:46;16.58;;;6.88;;
65377;SDS011;51982;51.042;13.806;2022-10-13T07:46:11;18.38;;;7.43;;
65377;SDS011;51982;51.042;13.806;2022-10-13T07:48:37;16.67;;;7.18;;
65377;SDS011;51982;51.042;13.806;2022-10-13T07:51:03;18.10;;;8.05;;
65377;SDS011;51982;51.042;13.806;2022-10-13T07:53:33;15.95;;;7.68;;
65377;SDS011;51982;51.042;13.806;2022-10-13T07:56:00;15.60;;;6.85;;
65377;SDS011;51982;51.042;13.806;2022-10-13T07:58:27;13.82;;;6.80;;
65377;SDS011;51982;51.042;13.806;2022-10-13T08:00:56;16.30;;;7.20;;
65377;SDS011;51982;51.042;13.806;2022-10-13T08:03:23;11.98;;;6.72;;
65377;SDS011;51982;51.042;13.806;2022-10-13T08:05:48;17.55;;;6.55;;
65377;SDS011;51982;51.042;13.806;2022-10-13T08:08:13;15.18;;;6.43;;
65377;SDS011;51982;51.042;13.806;2022-10-13T08:10:45;15.60;;;6.57;;
65377;SDS011;51982;51.042;13.806;2022-10-13T08:13:11;14.55;;;6.57;;
65377;SDS011;51982;51.042;13.806;2022-10-13T08:15:40;14.30;;;7.03;;
65377;SDS011;51982;51.042;13.806;2022-10-13T08:18:06;11.68;;;6.55;;
65377;SDS011;51982;51.042;13.806;2022-10-13T08:20:32;12.48;;;6.22;;
65377;SDS011;51982;51.042;13.806;2022-10-13T08:22:58;12.32;;;6.85;;
65377;SDS011;51982;51.042;13.806;2022-10-13T08:25:23;15.32;;;7.10;;
65377;SDS011;51982;51.042;13.806;2022-10-13T08:27:48;18.55;;;6.53;;
65377;SDS011;51982;51.042;13.806;2022-10-13T08:30:14;14.02;;;6.70;;
65377;SDS011;51982;51.042;13.806;2022-10-13T08:32:39;18.17;;;6.75;;
65377;SDS011;51982;51.042;13.806;2022-10-13T08:35:05;18.60;;;5.88;;
65377;SDS011;51982;51.042;13.806;2022-10-13T08:37:31;17.17;;;6.65;;
65377;SDS011;51982;51.042;13.806;2022-10-13T08:39:56;16.67;;;6.57;;
65377;SDS011;51982;51.042;13.806;2022-10-13T08:42:21;19.58;;;7.18;;
65377;SDS011;51982;51.042;13.806;2022-10-13T08:44:48;13.02;;;6.93;;
65377;SDS011;51982;51.042;13.806;2022-10-13T08:47:32;16.97;;;6.60;;
65377;SDS011;51982;51.042;13.806;2022-10-13T08:50:06;13.13;;;7.30;;
65377;SDS011;51982;51.042;13.806;2022-10-13T08:55:25;13.52;;;6.95;;
65377;SDS011;51982;51.042;13.806;2022-10-13T08:57:52;16.00;;;6.68;;
65377;SDS011;51982;51.042;13.806;2022-10-13T09:00:17;12.63;;;6.40;;
65377;SDS011;51982;51.042;13.806;2022-10-13T09:02:43;11.93;;;6.65;;
65377;SDS011;51982;51.042;13.806;2022-10-13T09:05:13;16.70;;;7.10;;
65377;SDS011;51982;51.042;13.806;2022-10-13T09:07:45;11.50;;;6.65;;
65377;SDS011;51982;51.042;13.806;2022-10-13T09:10:12;15.02;;;6.45;;
65377;SDS011;51982;51.042;13.806;2022-10-13T09:12:39;15.95;;;6.88;;
65377;SDS011;51982;51.042;13.806;2022-10-13T09:15:05;20.73;;;8.73;;
65377;SDS011;51982;51.042;13.806;2022-10-13T09:17:34;22.50;;;9.45;;
65377;SDS011;51982;51.042;13.806;2022-10-13T09:20:03;11.13;;;6.45;;
65377;SDS011;51982;51.042;13.806;2022-10-13T09:25:08;13.65;;;7.00;;
65377;SDS011;51982;51.042;13.806;2022-10-13T09:27:48;14.48;;;7.13;;
65377;SDS011;51982;51.042;13.806;2022-10-13T09:30:19;16.10;;;6.15;;
65377;SDS011;51982;51.042;13.806;2022-10-13T09:32:50;17.23;;;7.53;;
65377;SDS011;51982;51.042;13.806;2022-10-13T09:35:20;22.08;;;7.50;;
65377;SDS011;51982;51.042;13.806;2022-10-13T09:38:00;12.55;;;6.85;;
65377;SDS011;51982;51.042;13.806;2022-10-13T09:40:56;12.85;;;7.07;;
65377;SDS011;51982;51.042;13.806;2022-10-13T09:45:59;14.23;;;6.80;;
65377;SDS011;51982;51.042;13.806;2022-10-13T09:48:27;13.88;;;7.13;;
65377;SDS011;51982;51.042;13.806;2022-10-13T09:50:55;15.52;;;7.03;;
65377;SDS011;51982;51.042;13.806;2022-10-13T09:53:27;15.27;;;7.00;;
65377;SDS011;51982;51.042;13.806;2022-10-13T09:56:06;19.27;;;7.40;;
65377;SDS011;51982;51.042;13.806;2022-10-13T09:58:34;17.90;;;7.35;;
65377;SDS011;51982;51.042;13.806;2022-10-13T10:01:04;17.25;;;6.80;;
65377;SDS011;51982;51.042;13.806;2022-10-13T10:03:34;13.77;;;7.03;;
65377;SDS011;51982;51.042;13.806;2022-10-13T10:06:03;12.73;;;6.30;;
65377;SDS011;51982;51.042;13.806;2022-10-13T10:11:26;13.98;;;6.75;;
65377;SDS011;51982;51.042;13.806;2022-10-13T10:13:54;15.68;;;7.25;;
65377;SDS011;51982;51.042;13.806;2022-10-13T10:16:28;16.02;;;7.38;;
65377;SDS011;51982;51.042;13.806;2022-10-13T10:21:42;15.48;;;6.78;;
65377;SDS011;51982;51.042;13.806;2022-10-13T10:27:05;17.13;;;7.22;;
65377;SDS011;51982;51.042;13.806;2022-10-13T10:32:14;13.55;;;6.50;;
65377;SDS011;51982;51.042;13.806;2022-10-13T10:34:52;12.38;;;6.60;;
65377;SDS011;51982;51.042;13.806;2022-10-13T10:40:26;15.55;;;6.55;;
65377;SDS011;51982;51.042;13.806;2022-10-13T10:45:38;15.68;;;7.03;;
65377;SDS011;51982;51.042;13.806;2022-10-13T10:48:11;17.08;;;7.30;;
65377;SDS011;51982;51.042;13.806;2022-10-13T10:50:43;14.45;;;6.80;;
65377;SDS011;51982;51.042;13.806;2022-10-13T10:55:54;14.32;;;6.35;;
65377;SDS011;51982;51.042;13.806;2022-10-13T10:59:01;11.13;;;6.40;;
65377;SDS011;51982;51.042;13.806;2022-10-13T11:06:44;10.18;;;6.25;;
65377;SDS011;51982;51.042;13.806;2022-10-13T11:09:10;13.38;;;6.50;;
65377;SDS011;51982;51.042;13.806;2022-10-13T11:11:36;15.10;;;6.65;;
65377;SDS011;51982;51.042;13.806;2022-10-13T11:19:27;17.08;;;6.10;;
65377;SDS011;51982;51.042;13.806;2022-10-13T11:22:09;13.95;;;5.63;;
65377;SDS011;51982;51.042;13.806;2022-10-13T11:43:08;14.38;;;5.78;;
65377;SDS011;51982;51.042;13.806;2022-10-13T11:46:06;13.05;;;5.32;;
65377;SDS011;51982;51.042;13.806;2022-10-13T11:48:50;13.68;;;5.68;;
65377;SDS011;51982;51.042;13.806;2022-10-13T11:51:47;11.07;;;5.43;;
65377;SDS011;51982;51.042;13.806;2022-10-13T11:54:26;10.95;;;4.95;;
65377;SDS011;51982;51.042;13.806;2022-10-13T11:56:59;10.65;;;4.95;;
65377;SDS011;51982;51.042;13.806;2022-10-13T12:01:59;14.98;;;5.25;;
65377;SDS011;51982;51.042;13.806;2022-10-13T12:04:35;11.50;;;4.95;;
65377;SDS011;51982;51.042;13.806;2022-10-13T12:07:03;15.35;;;5.05;;
65377;SDS011;51982;51.042;13.806;2022-10-13T12:09:30;13.70;;;5.10;;
65377;SDS011;51982;51.042;13.806;2022-10-13T12:12:01;12.80;;;4.70;;
65377;SDS011;51982;51.042;13.806;2022-10-13T12:14:30;10.38;;;4.68;;
65377;SDS011;51982;51.042;13.806;2022-10-13T12:16:59;10.80;;;4.57;;
65377;SDS011;51982;51.042;13.806;2022-10-13T12:19:26;11.88;;;3.95;;
65377;SDS011;51982;51.042;13.806;2022-10-13T12:21:54;11.13;;;4.28;;
65377;SDS011;51982;51.042;13.806;2022-10-13T12:24:22;8.02;;;4.43;;
65377;SDS011;51982;51.042;13.806;2022-10-13T12:26:49;9.02;;;4.95;;
65377;SDS011;51982;51.042;13.806;2022-10-13T12:29:16;13.85;;;4.75;;
65377;SDS011;51982;51.042;13.806;2022-10-13T12:31:43;10.90;;;4.93;;
65377;SDS011;51982;51.042;13.806;2022-10-13T12:36:56;11.48;;;4.50;;
65377;SDS011;51982;51.042;13.806;2022-10-13T12:39:23;10.02;;;4.90;;
65377;SDS011;51982;51.042;13.806;2022-10-13T12:41:49;11.82;;;5.15;;
65377;SDS011;51982;51.042;13.806;2022-10-13T12:44:19;10.13;;;5.05;;
65377;SDS011;51982;51.042;13.806;2022-10-13T12:46:51;11.82;;;4.78;;
65377;SDS011;51982;51.042;13.806;2022-10-13T12:49:21;10.05;;;4.80;;
65377;SDS011;51982;51.042;13.806;2022-10-13T12:52:31;8.57;;;4.53;;
65377;SDS011;51982;51.042;13.806;2022-10-13T12:54:44;8.90;;;4.45;;
65377;SDS011;51982;51.042;13.806;2022-10-13T12:57:16;8.70;;;4.63;;
65377;SDS011;51982;51.042;13.806;2022-10-13T12:59:44;8.40;;;4.82;;
65377;SDS011;51982;51.042;13.806;2022-10-13T13:02:28;11.52;;;4.85;;
65377;SDS011;51982;51.042;13.806;2022-10-13T13:04:56;17.90;;;4.88;;
65377;SDS011;51982;51.042;13.806;2022-10-13T13:07:24;14.25;;;4.80;;
65377;SDS011;51982;51.042;13.806;2022-10-13T13:12:32;9.35;;;4.80;;
65377;SDS011;51982;51.042;13.806;2022-10-13T13:14:58;10.80;;;4.07;;
65377;SDS011;51982;51.042;13.806;2022-10-13T13:17:54;7.57;;;4.53;;
65377;SDS011;51982;51.042;13.806;2022-10-13T13:21:04;12.68;;;5.07;;
65377;SDS011;51982;51.042;13.806;2022-10-13T13:23:30;15.43;;;5.45;;
65377;SDS011;51982;51.042;13.806;2022-10-13T13:25:59;12.55;;;5.07;;
65377;SDS011;51982;51.042;13.806;2022-10-13T13:28:34;8.82;;;4.63;;
65377;SDS011;51982;51.042;13.806;2022-10-13T13:30:59;8.50;;;5.47;;
65377;SDS011;51982;51.042;13.806;2022-10-13T13:33:25;12.05;;;5.22;;
65377;SDS011;51982;51.042;13.806;2022-10-13T13:35:50;9.80;;;5.20;;
65377;SDS011;51982;51.042;13.806;2022-10-13T13:38:17;18.13;;;6.10;;
65377;SDS011;51982;51.042;13.806;2022-10-13T13:40:44;13.65;;;5.65;;
65377;SDS011;51982;51.042;13.806;2022-10-13T13:43:09;12.52;;;4.78;;
65377;SDS011;51982;51.042;13.806;2022-10-13T13:45:35;17.75;;;4.75;;
65377;SDS011;51982;51.042;13.806;2022-10-13T13:48:00;15.10;;;4.15;;
65377;SDS011;51982;51.042;13.806;2022-10-13T13:50:26;9.10;;;4.00;;
65377;SDS011;51982;51.042;13.806;2022-10-13T13:52:56;14.18;;;3.92;;
65377;SDS011;51982;51.042;13.806;2022-10-13T13:55:22;12.27;;;3.60;;
65377;SDS011;51982;51.042;13.806;2022-10-13T13:57:47;16.50;;;3.80;;
65377;SDS011;51982;51.042;13.806;2022-10-13T14:00:13;10.85;;;3.53;;
65377;SDS011;51982;51.042;13.806;2022-10-13T14:02:39;10.70;;;3.65;;
65377;SDS011;51982;51.042;13.806;2022-10-13T14:05:06;12.20;;;4.30;;
65377;SDS011;51982;51.042;13.806;2022-10-13T14:07:32;16.08;;;4.80;;
65377;SDS011;51982;51.042;13.806;2022-10-13T14:09:57;9.55;;;4.03;;
65377;SDS011;51982;51.042;13.806;2022-10-13T14:12:22;12.05;;;3.78;;
65377;SDS011;51982;51.042;13.806;2022-10-13T14:14:48;10.88;;;3.92;;
65377;SDS011;51982;51.042;13.806;2022-10-13T14:17:13;6.90;;;3.80;;
65377;SDS011;51982;51.042;13.806;2022-10-13T14:19:38;8.05;;;3.85;;
65377;SDS011;51982;51.042;13.806;2022-10-13T14:22:05;6.70;;;3.60;;
65377;SDS011;51982;51.042;13.806;2022-10-13T14:24:30;11.63;;;4.15;;
65377;SDS011;51982;51.042;13.806;2022-10-13T14:26:56;11.60;;;4.47;;
65377;SDS011;51982;51.042;13.806;2022-10-13T14:29:21;10.05;;;4.00;;
65377;SDS011;51982;51.042;13.806;2022-10-13T14:31:47;9.25;;;4.30;;
65377;SDS011;51982;51.042;13.806;2022-10-13T14:34:12;11.02;;;4.30;;
65377;SDS011;51982;51.042;13.806;2022-10-13T14:36:38;8.60;;;3.75;;
65377;SDS011;51982;51.042;13.806;2022-10-13T14:39:03;8.88;;;4.05;;
65377;SDS011;51982;51.042;13.806;2022-10-13T14:41:29;13.27;;;4.53;;
65377;SDS011;51982;51.042;13.806;2022-10-13T14:43:54;13.00;;;3.90;;
65377;SDS011;51982;51.042;13.806;2022-10-13T14:46:20;9.10;;;4.55;;
65377;SDS011;51982;51.042;13.806;2022-10-13T14:48:46;7.85;;;4.40;;
65377;SDS011;51982;51.042;13.806;2022-10-13T14:51:12;8.70;;;4.78;;
65377;SDS011;51982;51.042;13.806;2022-10-13T14:53:38;10.93;;;4.78;;
65377;SDS011;51982;51.042;13.806;2022-10-13T14:56:15;8.65;;;4.63;;
65377;SDS011;51982;51.042;13.806;2022-10-13T14:58:41;8.57;;;4.50;;
65377;SDS011;51982;51.042;13.806;2022-10-13T15:01:06;9.98;;;4.65;;
65377;SDS011;51982;51.042;13.806;2022-10-13T15:03:31;12.13;;;4.22;;
65377;SDS011;51982;51.042;13.806;2022-10-13T15:05:57;15.07;;;4.53;;
65377;SDS011;51982;51.042;13.806;2022-10-13T15:08:22;10.30;;;4.60;;
65377;SDS011;51982;51.042;13.806;2022-10-13T15:10:56;12.20;;;4.18;;
65377;SDS011;51982;51.042;13.806;2022-10-13T15:13:22;15.30;;;4.70;;
65377;SDS011;51982;51.042;13.806;2022-10-13T15:15:47;10.60;;;4.22;;
65377;SDS011;51982;51.042;13.806;2022-10-13T15:18:16;11.30;;;4.78;;
65377;SDS011;51982;51.042;13.806;2022-10-13T15:20:47;10.30;;;4.50;;
65377;SDS011;51982;51.042;13.806;2022-10-13T15:23:17;13.45;;;4.50;;
65377;SDS011;51982;51.042;13.806;2022-10-13T15:25:55;9.52;;;4.43;;
65377;SDS011;51982;51.042;13.806;2022-10-13T15:28:22;8.85;;;4.85;;
65377;SDS011;51982;51.042;13.806;2022-10-13T15:30:51;13.70;;;5.30;;
65377;SDS011;51982;51.042;13.806;2022-10-13T15:33:20;13.77;;;5.38;;
65377;SDS011;51982;51.042;13.806;2022-10-13T15:36:06;17.98;;;5.20;;
65377;SDS011;51982;51.042;13.806;2022-10-13T15:38:31;27.98;;;6.70;;
65377;SDS011;51982;51.042;13.806;2022-10-13T15:41:00;16.65;;;6.55;;
65377;SDS011;51982;51.042;13.806;2022-10-13T15:43:26;17.60;;;7.32;;
65377;SDS011;51982;51.042;13.806;2022-10-13T15:45:53;13.73;;;6.78;;
65377;SDS011;51982;51.042;13.806;2022-10-13T15:48:20;19.58;;;6.70;;
65377;SDS011;51982;51.042;13.806;2022-10-13T15:50:45;17.63;;;7.10;;
65377;SDS011;51982;51.042;13.806;2022-10-13T15:53:11;20.88;;;7.38;;
65377;SDS011;51982;51.042;13.806;2022-10-13T15:55:37;16.42;;;6.15;;